sensor_id;sensor_type;location;lat;lon;timestamp;P1;durP1;ratioP1;P2;durP2;ratioP2
19285;SDS011;9776;50.798;6.430;2023-06-24T00:01:59;5.70;;;4.07;;
19285;SDS011;9776;50.798;6.430;2023-06-24T00:04:26;5.38;;;4.10;;
19285;SDS011;9776;50.798;6.430;2023-06-24T00:06:54;5.03;;;3.75;;
19285;SDS011;9776;50.798;6.430;2023-06-24T00:09:24;5.18;;;3.75;;
19285;SDS011;9776;50.798;6.430;2023-06-24T00:11:51;4.68;;;4.10;;
19285;SDS011;9776;50.798;6.430;2023-06-24T00:14:17;5.40;;;3.72;;
19285;SDS011;9776;50.798;6.430;2023-06-24T00:16:46;6.82;;;4.13;;
19285;SDS011;9776;50.798;6.430;2023-06-24T00:19:17;6.45;;;4.00;;
19285;SDS011;9776;50.798;6.430;2023-06-24T00:21:45;4.80;;;3.63;;
19285;SDS011;9776;50.798;6.430;2023-06-24T00:24:13;4.65;;;3.75;;
19285;SDS011;9776;50.798;6.430;2023-06-24T00:26:40;4.65;;;3.72;;
19285;SDS011;9776;50.798;6.430;2023-06-24T00:29:07;5.38;;;3.72;;
19285;SDS011;9776;50.798;6.430;2023-06-24T00:31:33;6.47;;;3.78;;
19285;SDS011;9776;50.798;6.430;2023-06-24T00:34:00;4.38;;;3.60;;
19285;SDS011;9776;50.798;6.430;2023-06-24T00:36:26;4.88;;;3.75;;
19285;SDS011;9776;50.798;6.430;2023-06-24T00:38:53;4.35;;;3.78;;
19285;SDS011;9776;50.798;6.430;2023-06-24T00:41:23;6.93;;;3.85;;
19285;SDS011;9776;50.798;6.430;2023-06-24T00:43:50;6.97;;;4.20;;
19285;SDS011;9776;50.798;6.430;2023-06-24T00:46:16;4.93;;;3.97;;
19285;SDS011;9776;50.798;6.430;2023-06-24T00:48:44;6.30;;;3.63;;
19285;SDS011;9776;50.798;6.430;2023-06-24T00:51:11;4.88;;;4.05;;
19285;SDS011;9776;50.798;6.430;2023-06-24T00:53:38;5.35;;;3.78;;
19285;SDS011;9776;50.798;6.430;2023-06-24T00:56:04;6.05;;;3.75;;
19285;SDS011;9776;50.798;6.430;2023-06-24T00:58:33;6.03;;;3.53;;
19285;SDS011;9776;50.798;6.430;2023-06-24T01:01:02;6.53;;;4.10;;
19285;SDS011;9776;50.798;6.430;2023-06-24T01:03:28;5.88;;;3.90;;
19285;SDS011;9776;50.798;6.430;2023-06-24T01:05:56;6.00;;;4.07;;
19285;SDS011;9776;50.798;6.430;2023-06-24T01:08:23;5.90;;;3.70;;
19285;SDS011;9776;50.798;6.430;2023-06-24T01:10:51;6.57;;;4.00;;
19285;SDS011;9776;50.798;6.430;2023-06-24T01:13:17;6.55;;;3.75;;
19285;SDS011;9776;50.798;6.430;2023-06-24T01:15:46;9.40;;;3.97;;
19285;SDS011;9776;50.798;6.430;2023-06-24T01:18:15;5.97;;;3.58;;
19285;SDS011;9776;50.798;6.430;2023-06-24T01:20:49;4.13;;;3.67;;
19285;SDS011;9776;50.798;6.430;2023-06-24T01:26:32;6.32;;;4.50;;
19285;SDS011;9776;50.798;6.430;2023-06-24T01:29:17;5.85;;;3.90;;
19285;SDS011;9776;50.798;6.430;2023-06-24T01:32:04;5.47;;;4.13;;
19285;SDS011;9776;50.798;6.430;2023-06-24T01:34:36;5.38;;;4.45;;
19285;SDS011;9776;50.798;6.430;2023-06-24T01:37:10;12.52;;;4.22;;
19285;SDS011;9776;50.798;6.430;2023-06-24T01:39:42;5.80;;;3.65;;
19285;SDS011;9776;50.798;6.430;2023-06-24T01:42:13;7.28;;;4.20;;
19285;SDS011;9776;50.798;6.430;2023-06-24T01:44:43;9.38;;;4.03;;
19285;SDS011;9776;50.798;6.430;2023-06-24T01:47:14;9.63;;;4.50;;
19285;SDS011;9776;50.798;6.430;2023-06-24T01:49:46;8.20;;;3.88;;
19285;SDS011;9776;50.798;6.430;2023-06-24T01:52:15;7.72;;;4.22;;
19285;SDS011;9776;50.798;6.430;2023-06-24T01:54:44;9.57;;;4.03;;
19285;SDS011;9776;50.798;6.430;2023-06-24T01:57:14;7.22;;;4.40;;
19285;SDS011;9776;50.798;6.430;2023-06-24T01:59:42;5.75;;;4.18;;
19285;SDS011;9776;50.798;6.430;2023-06-24T02:02:12;6.90;;;3.88;;
19285;SDS011;9776;50.798;6.430;2023-06-24T02:04:41;4.80;;;3.90;;
19285;SDS011;9776;50.798;6.430;2023-06-24T02:07:09;6.28;;;4.28;;
19285;SDS011;9776;50.798;6.430;2023-06-24T02:09:38;7.05;;;3.78;;
19285;SDS011;9776;50.798;6.430;2023-06-24T02:12:08;6.57;;;3.78;;
19285;SDS011;9776;50.798;6.430;2023-06-24T02:14:35;5.53;;;3.80;;
19285;SDS011;9776;50.798;6.430;2023-06-24T02:17:03;7.35;;;3.75;;
19285;SDS011;9776;50.798;6.430;2023-06-24T02:19:32;6.00;;;3.90;;
19285;SDS011;9776;50.798;6.430;2023-06-24T02:22:01;8.32;;;3.90;;
19285;SDS011;9776;50.798;6.430;2023-06-24T02:24:29;6.63;;;4.18;;
19285;SDS011;9776;50.798;6.430;2023-06-24T02:26:56;6.25;;;4.05;;
19285;SDS011;9776;50.798;6.430;2023-06-24T02:29:25;10.38;;;4.30;;
19285;SDS011;9776;50.798;6.430;2023-06-24T02:31:53;5.82;;;4.30;;
19285;SDS011;9776;50.798;6.430;2023-06-24T02:34:20;7.35;;;4.40;;
19285;SDS011;9776;50.798;6.430;2023-06-24T02:36:48;5.97;;;4.10;;
19285;SDS011;9776;50.798;6.430;2023-06-24T02:39:18;8.82;;;4.20;;
19285;SDS011;9776;50.798;6.430;2023-06-24T02:41:44;8.23;;;4.57;;
19285;SDS011;9776;50.798;6.430;2023-06-24T02:44:12;8.20;;;4.30;;
19285;SDS011;9776;50.798;6.430;2023-06-24T02:46:39;9.93;;;4.25;;
19285;SDS011;9776;50.798;6.430;2023-06-24T02:49:08;4.75;;;4.05;;
19285;SDS011;9776;50.798;6.430;2023-06-24T02:51:36;6.55;;;4.00;;
19285;SDS011;9776;50.798;6.430;2023-06-24T02:54:04;5.65;;;4.00;;
19285;SDS011;9776;50.798;6.430;2023-06-24T02:56:32;5.70;;;4.30;;
19285;SDS011;9776;50.798;6.430;2023-06-24T02:59:00;8.95;;;4.50;;
19285;SDS011;9776;50.798;6.430;2023-06-24T03:01:26;6.35;;;4.68;;
19285;SDS011;9776;50.798;6.430;2023-06-24T03:03:54;6.15;;;4.53;;
19285;SDS011;9776;50.798;6.430;2023-06-24T03:06:21;7.47;;;4.97;;
19285;SDS011;9776;50.798;6.430;2023-06-24T03:08:49;6.10;;;4.35;;
19285;SDS011;9776;50.798;6.430;2023-06-24T03:11:16;9.52;;;4.93;;
19285;SDS011;9776;50.798;6.430;2023-06-24T03:13:44;6.80;;;4.55;;
19285;SDS011;9776;50.798;6.430;2023-06-24T03:16:11;8.55;;;5.00;;
19285;SDS011;9776;50.798;6.430;2023-06-24T03:18:38;9.75;;;4.72;;
19285;SDS011;9776;50.798;6.430;2023-06-24T03:21:06;8.43;;;5.57;;
19285;SDS011;9776;50.798;6.430;2023-06-24T03:23:33;8.68;;;5.00;;
19285;SDS011;9776;50.798;6.430;2023-06-24T03:25:59;7.78;;;4.45;;
19285;SDS011;9776;50.798;6.430;2023-06-24T03:28:27;5.93;;;4.70;;
19285;SDS011;9776;50.798;6.430;2023-06-24T03:30:56;9.65;;;4.75;;
19285;SDS011;9776;50.798;6.430;2023-06-24T03:33:22;7.95;;;4.90;;
19285;SDS011;9776;50.798;6.430;2023-06-24T03:35:49;9.73;;;4.90;;
19285;SDS011;9776;50.798;6.430;2023-06-24T03:38:16;9.10;;;4.60;;
19285;SDS011;9776;50.798;6.430;2023-06-24T03:40:42;5.55;;;4.53;;
19285;SDS011;9776;50.798;6.430;2023-06-24T03:43:09;7.13;;;4.78;;
19285;SDS011;9776;50.798;6.430;2023-06-24T03:45:36;8.70;;;4.88;;
19285;SDS011;9776;50.798;6.430;2023-06-24T03:48:04;9.50;;;5.10;;
19285;SDS011;9776;50.798;6.430;2023-06-24T03:50:31;6.53;;;4.63;;
19285;SDS011;9776;50.798;6.430;2023-06-24T03:52:58;8.43;;;4.43;;
19285;SDS011;9776;50.798;6.430;2023-06-24T03:55:25;7.15;;;4.90;;
19285;SDS011;9776;50.798;6.430;2023-06-24T03:57:51;5.80;;;4.47;;
19285;SDS011;9776;50.798;6.430;2023-06-24T04:00:18;7.05;;;4.93;;
19285;SDS011;9776;50.798;6.430;2023-06-24T04:02:46;8.05;;;4.72;;
19285;SDS011;9776;50.798;6.430;2023-06-24T04:05:15;7.75;;;5.18;;
19285;SDS011;9776;50.798;6.430;2023-06-24T04:07:41;7.47;;;5.15;;
19285;SDS011;9776;50.798;6.430;2023-06-24T04:10:12;8.48;;;5.18;;
19285;SDS011;9776;50.798;6.430;2023-06-24T04:12:39;8.52;;;5.07;;
19285;SDS011;9776;50.798;6.430;2023-06-24T04:15:06;6.25;;;4.70;;
19285;SDS011;9776;50.798;6.430;2023-06-24T04:17:33;6.13;;;4.90;;
19285;SDS011;9776;50.798;6.430;2023-06-24T04:20:00;8.38;;;5.90;;
19285;SDS011;9776;50.798;6.430;2023-06-24T04:22:29;7.10;;;5.22;;
19285;SDS011;9776;50.798;6.430;2023-06-24T04:24:55;6.93;;;5.00;;
19285;SDS011;9776;50.798;6.430;2023-06-24T04:27:22;9.63;;;5.57;;
19285;SDS011;9776;50.798;6.430;2023-06-24T04:29:49;9.27;;;6.15;;
19285;SDS011;9776;50.798;6.430;2023-06-24T04:32:15;9.20;;;5.65;;
19285;SDS011;9776;50.798;6.430;2023-06-24T04:34:42;9.88;;;6.10;;
19285;SDS011;9776;50.798;6.430;2023-06-24T04:37:08;9.48;;;5.60;;
19285;SDS011;9776;50.798;6.430;2023-06-24T04:39:36;9.20;;;5.72;;
19285;SDS011;9776;50.798;6.430;2023-06-24T04:42:03;9.98;;;6.10;;
19285;SDS011;9776;50.798;6.430;2023-06-24T04:44:30;9.48;;;5.53;;
19285;SDS011;9776;50.798;6.430;2023-06-24T04:46:57;8.95;;;5.97;;
19285;SDS011;9776;50.798;6.430;2023-06-24T04:49:23;11.90;;;5.35;;
19285;SDS011;9776;50.798;6.430;2023-06-24T04:51:50;8.32;;;5.70;;
19285;SDS011;9776;50.798;6.430;2023-06-24T04:54:17;10.10;;;6.03;;
19285;SDS011;9776;50.798;6.430;2023-06-24T04:56:45;8.40;;;5.60;;
19285;SDS011;9776;50.798;6.430;2023-06-24T04:59:13;9.10;;;5.97;;
19285;SDS011;9776;50.798;6.430;2023-06-24T05:01:40;7.93;;;5.60;;
19285;SDS011;9776;50.798;6.430;2023-06-24T05:04:06;8.70;;;5.55;;
19285;SDS011;9776;50.798;6.430;2023-06-24T05:06:33;7.70;;;5.50;;
19285;SDS011;9776;50.798;6.430;2023-06-24T05:08:59;9.30;;;5.78;;
19285;SDS011;9776;50.798;6.430;2023-06-24T05:11:26;10.95;;;6.38;;
19285;SDS011;9776;50.798;6.430;2023-06-24T05:13:54;8.60;;;5.80;;
19285;SDS011;9776;50.798;6.430;2023-06-24T05:16:21;8.88;;;5.93;;
19285;SDS011;9776;50.798;6.430;2023-06-24T05:18:49;12.02;;;6.38;;
19285;SDS011;9776;50.798;6.430;2023-06-24T05:21:16;8.32;;;5.45;;
19285;SDS011;9776;50.798;6.430;2023-06-24T05:23:42;8.07;;;5.95;;
19285;SDS011;9776;50.798;6.430;2023-06-24T05:26:09;8.23;;;5.32;;
19285;SDS011;9776;50.798;6.430;2023-06-24T05:28:36;8.43;;;5.88;;
19285;SDS011;9776;50.798;6.430;2023-06-24T05:31:04;10.48;;;6.30;;
19285;SDS011;9776;50.798;6.430;2023-06-24T05:33:31;10.65;;;6.20;;
19285;SDS011;9776;50.798;6.430;2023-06-24T05:35:57;8.35;;;5.70;;
19285;SDS011;9776;50.798;6.430;2023-06-24T05:38:24;11.45;;;5.82;;
19285;SDS011;9776;50.798;6.430;2023-06-24T05:40:51;9.50;;;5.63;;
19285;SDS011;9776;50.798;6.430;2023-06-24T05:43:17;10.90;;;5.20;;
19285;SDS011;9776;50.798;6.430;2023-06-24T05:45:44;7.70;;;5.35;;
19285;SDS011;9776;50.798;6.430;2023-06-24T05:48:12;7.65;;;5.25;;
19285;SDS011;9776;50.798;6.430;2023-06-24T05:50:39;8.95;;;4.78;;
19285;SDS011;9776;50.798;6.430;2023-06-24T05:53:06;7.07;;;5.20;;
19285;SDS011;9776;50.798;6.430;2023-06-24T05:55:32;9.60;;;5.18;;
19285;SDS011;9776;50.798;6.430;2023-06-24T05:57:59;6.90;;;4.75;;
19285;SDS011;9776;50.798;6.430;2023-06-24T06:00:26;10.10;;;5.22;;
19285;SDS011;9776;50.798;6.430;2023-06-24T06:02:52;8.18;;;4.70;;
19285;SDS011;9776;50.798;6.430;2023-06-24T06:05:20;8.07;;;4.65;;
19285;SDS011;9776;50.798;6.430;2023-06-24T06:07:47;7.78;;;4.70;;
19285;SDS011;9776;50.798;6.430;2023-06-24T06:10:14;8.82;;;4.78;;
19285;SDS011;9776;50.798;6.430;2023-06-24T06:12:42;7.20;;;4.45;;
19285;SDS011;9776;50.798;6.430;2023-06-24T06:15:09;7.13;;;4.22;;
19285;SDS011;9776;50.798;6.430;2023-06-24T06:17:36;7.18;;;3.90;;
19285;SDS011;9776;50.798;6.430;2023-06-24T06:20:04;7.65;;;4.32;;
19285;SDS011;9776;50.798;6.430;2023-06-24T06:22:32;4.90;;;3.65;;
19285;SDS011;9776;50.798;6.430;2023-06-24T06:25:02;6.15;;;3.72;;
19285;SDS011;9776;50.798;6.430;2023-06-24T06:27:30;6.00;;;3.55;;
19285;SDS011;9776;50.798;6.430;2023-06-24T06:29:56;5.40;;;3.67;;
19285;SDS011;9776;50.798;6.430;2023-06-24T06:32:23;5.32;;;3.50;;
19285;SDS011;9776;50.798;6.430;2023-06-24T06:34:50;7.65;;;3.30;;
19285;SDS011;9776;50.798;6.430;2023-06-24T06:37:16;4.35;;;3.08;;
19285;SDS011;9776;50.798;6.430;2023-06-24T06:39:44;5.15;;;3.20;;
19285;SDS011;9776;50.798;6.430;2023-06-24T06:42:11;4.95;;;3.35;;
19285;SDS011;9776;50.798;6.430;2023-06-24T06:44:39;5.55;;;3.20;;
19285;SDS011;9776;50.798;6.430;2023-06-24T06:47:06;4.95;;;3.20;;
19285;SDS011;9776;50.798;6.430;2023-06-24T06:49:33;6.45;;;3.63;;
19285;SDS011;9776;50.798;6.430;2023-06-24T06:52:00;6.80;;;4.07;;
19285;SDS011;9776;50.798;6.430;2023-06-24T06:54:26;5.80;;;3.97;;
19285;SDS011;9776;50.798;6.430;2023-06-24T06:56:54;7.30;;;4.20;;
19285;SDS011;9776;50.798;6.430;2023-06-24T06:59:21;4.75;;;3.13;;
19285;SDS011;9776;50.798;6.430;2023-06-24T07:01:48;7.38;;;4.25;;
19285;SDS011;9776;50.798;6.430;2023-06-24T07:04:14;9.98;;;4.50;;
19285;SDS011;9776;50.798;6.430;2023-06-24T07:06:41;7.47;;;4.65;;
19285;SDS011;9776;50.798;6.430;2023-06-24T07:09:07;7.32;;;4.57;;
19285;SDS011;9776;50.798;6.430;2023-06-24T07:11:34;7.20;;;4.40;;
19285;SDS011;9776;50.798;6.430;2023-06-24T07:14:02;8.77;;;5.50;;
19285;SDS011;9776;50.798;6.430;2023-06-24T07:16:29;8.30;;;4.57;;
19285;SDS011;9776;50.798;6.430;2023-06-24T07:18:55;9.18;;;4.90;;
19285;SDS011;9776;50.798;6.430;2023-06-24T07:21:22;7.93;;;4.53;;
19285;SDS011;9776;50.798;6.430;2023-06-24T07:23:49;7.65;;;4.70;;
19285;SDS011;9776;50.798;6.430;2023-06-24T07:26:15;7.90;;;4.70;;
19285;SDS011;9776;50.798;6.430;2023-06-24T07:28:42;10.20;;;5.43;;
19285;SDS011;9776;50.798;6.430;2023-06-24T07:31:10;7.90;;;4.88;;
19285;SDS011;9776;50.798;6.430;2023-06-24T07:33:36;7.65;;;5.07;;
19285;SDS011;9776;50.798;6.430;2023-06-24T07:36:03;8.82;;;5.07;;
19285;SDS011;9776;50.798;6.430;2023-06-24T07:38:30;9.88;;;5.65;;
19285;SDS011;9776;50.798;6.430;2023-06-24T07:40:57;10.05;;;5.50;;
19285;SDS011;9776;50.798;6.430;2023-06-24T07:43:23;12.43;;;5.95;;
19285;SDS011;9776;50.798;6.430;2023-06-24T07:45:50;8.93;;;5.63;;
19285;SDS011;9776;50.798;6.430;2023-06-24T07:48:18;10.18;;;6.50;;
19285;SDS011;9776;50.798;6.430;2023-06-24T07:50:45;10.77;;;5.10;;
19285;SDS011;9776;50.798;6.430;2023-06-24T07:53:11;10.57;;;6.20;;
19285;SDS011;9776;50.798;6.430;2023-06-24T07:55:38;8.27;;;5.53;;
19285;SDS011;9776;50.798;6.430;2023-06-24T07:58:04;11.90;;;5.93;;
19285;SDS011;9776;50.798;6.430;2023-06-24T08:00:31;10.07;;;6.22;;
19285;SDS011;9776;50.798;6.430;2023-06-24T08:02:57;11.32;;;5.70;;
19285;SDS011;9776;50.798;6.430;2023-06-24T08:05:26;8.90;;;5.63;;
19285;SDS011;9776;50.798;6.430;2023-06-24T08:07:52;7.18;;;5.25;;
19285;SDS011;9776;50.798;6.430;2023-06-24T08:10:19;7.38;;;4.97;;
19285;SDS011;9776;50.798;6.430;2023-06-24T08:12:45;8.27;;;5.18;;
19285;SDS011;9776;50.798;6.430;2023-06-24T08:15:12;9.00;;;5.65;;
19285;SDS011;9776;50.798;6.430;2023-06-24T08:17:40;8.60;;;4.80;;
19285;SDS011;9776;50.798;6.430;2023-06-24T08:20:07;8.13;;;5.57;;
19285;SDS011;9776;50.798;6.430;2023-06-24T08:22:35;8.95;;;5.18;;
19285;SDS011;9776;50.798;6.430;2023-06-24T08:25:02;8.55;;;4.88;;
19285;SDS011;9776;50.798;6.430;2023-06-24T08:27:29;7.30;;;4.18;;
19285;SDS011;9776;50.798;6.430;2023-06-24T08:29:55;10.07;;;5.15;;
19285;SDS011;9776;50.798;6.430;2023-06-24T08:32:22;5.30;;;3.58;;
19285;SDS011;9776;50.798;6.430;2023-06-24T08:34:48;5.93;;;3.22;;
19285;SDS011;9776;50.798;6.430;2023-06-24T08:37:15;7.53;;;4.40;;
19285;SDS011;9776;50.798;6.430;2023-06-24T08:39:43;6.40;;;3.83;;
19285;SDS011;9776;50.798;6.430;2023-06-24T08:42:10;6.00;;;3.80;;
19285;SDS011;9776;50.798;6.430;2023-06-24T08:44:36;6.57;;;4.35;;
19285;SDS011;9776;50.798;6.430;2023-06-24T08:47:03;4.70;;;3.25;;
19285;SDS011;9776;50.798;6.430;2023-06-24T08:49:30;5.45;;;3.33;;
19285;SDS011;9776;50.798;6.430;2023-06-24T08:52:00;4.50;;;3.20;;
19285;SDS011;9776;50.798;6.430;2023-06-24T08:54:28;4.53;;;3.40;;
19285;SDS011;9776;50.798;6.430;2023-06-24T08:56:58;5.55;;;3.33;;
19285;SDS011;9776;50.798;6.430;2023-06-24T08:59:26;5.05;;;2.78;;
19285;SDS011;9776;50.798;6.430;2023-06-24T09:01:53;4.70;;;3.20;;
19285;SDS011;9776;50.798;6.430;2023-06-24T09:04:19;4.60;;;3.30;;
19285;SDS011;9776;50.798;6.430;2023-06-24T09:06:46;5.35;;;3.40;;
19285;SDS011;9776;50.798;6.430;2023-06-24T09:09:19;4.10;;;2.53;;
19285;SDS011;9776;50.798;6.430;2023-06-24T09:11:53;5.75;;;2.85;;
19285;SDS011;9776;50.798;6.430;2023-06-24T09:14:22;4.65;;;3.08;;
19285;SDS011;9776;50.798;6.430;2023-06-24T09:16:50;4.05;;;2.80;;
19285;SDS011;9776;50.798;6.430;2023-06-24T09:19:19;4.13;;;2.60;;
19285;SDS011;9776;50.798;6.430;2023-06-24T09:21:47;4.68;;;3.03;;
19285;SDS011;9776;50.798;6.430;2023-06-24T09:24:13;5.65;;;2.70;;
19285;SDS011;9776;50.798;6.430;2023-06-24T09:26:41;3.95;;;2.38;;
19285;SDS011;9776;50.798;6.430;2023-06-24T09:29:09;3.85;;;2.60;;
19285;SDS011;9776;50.798;6.430;2023-06-24T09:31:43;4.82;;;2.15;;
19285;SDS011;9776;50.798;6.430;2023-06-24T09:34:12;3.70;;;2.28;;
19285;SDS011;9776;50.798;6.430;2023-06-24T09:36:41;3.40;;;1.95;;
19285;SDS011;9776;50.798;6.430;2023-06-24T09:39:09;3.28;;;2.00;;
19285;SDS011;9776;50.798;6.430;2023-06-24T09:41:36;3.33;;;2.10;;
19285;SDS011;9776;50.798;6.430;2023-06-24T09:44:07;3.00;;;1.80;;
19285;SDS011;9776;50.798;6.430;2023-06-24T09:46:35;2.08;;;1.60;;
19285;SDS011;9776;50.798;6.430;2023-06-24T09:49:03;2.35;;;1.90;;
19285;SDS011;9776;50.798;6.430;2023-06-24T09:51:31;2.97;;;2.13;;
19285;SDS011;9776;50.798;6.430;2023-06-24T09:54:02;2.92;;;2.17;;
19285;SDS011;9776;50.798;6.430;2023-06-24T09:56:32;5.03;;;2.00;;
19285;SDS011;9776;50.798;6.430;2023-06-24T09:59:01;3.47;;;1.98;;
19285;SDS011;9776;50.798;6.430;2023-06-24T10:01:31;2.78;;;1.92;;
19285;SDS011;9776;50.798;6.430;2023-06-24T10:03:58;4.03;;;2.10;;
19285;SDS011;9776;50.798;6.430;2023-06-24T10:06:28;2.72;;;1.70;;
19285;SDS011;9776;50.798;6.430;2023-06-24T10:08:55;3.40;;;1.80;;
19285;SDS011;9776;50.798;6.430;2023-06-24T10:11:22;2.70;;;1.80;;
19285;SDS011;9776;50.798;6.430;2023-06-24T10:13:49;2.80;;;2.00;;
19285;SDS011;9776;50.798;6.430;2023-06-24T10:16:16;3.10;;;2.00;;
19285;SDS011;9776;50.798;6.430;2023-06-24T10:18:43;1.70;;;1.08;;
19285;SDS011;9776;50.798;6.430;2023-06-24T10:21:11;3.88;;;1.38;;
19285;SDS011;9776;50.798;6.430;2023-06-24T10:23:40;1.95;;;1.40;;
19285;SDS011;9776;50.798;6.430;2023-06-24T10:26:08;4.05;;;1.90;;
19285;SDS011;9776;50.798;6.430;2023-06-24T10:31:51;3.40;;;1.88;;
19285;SDS011;9776;50.798;6.430;2023-06-24T10:34:32;2.08;;;1.55;;
19285;SDS011;9776;50.798;6.430;2023-06-24T10:37:01;3.08;;;1.58;;
19285;SDS011;9776;50.798;6.430;2023-06-24T10:39:36;2.63;;;1.70;;
19285;SDS011;9776;50.798;6.430;2023-06-24T10:45:17;2.33;;;1.58;;
19285;SDS011;9776;50.798;6.430;2023-06-24T10:47:46;2.25;;;1.65;;
19285;SDS011;9776;50.798;6.430;2023-06-24T10:50:15;2.53;;;1.67;;
19285;SDS011;9776;50.798;6.430;2023-06-24T10:52:42;2.90;;;1.75;;
19285;SDS011;9776;50.798;6.430;2023-06-24T10:55:12;2.10;;;1.50;;
19285;SDS011;9776;50.798;6.430;2023-06-24T10:57:40;2.90;;;1.55;;
19285;SDS011;9776;50.798;6.430;2023-06-24T11:00:07;2.25;;;1.30;;
19285;SDS011;9776;50.798;6.430;2023-06-24T11:02:35;1.98;;;1.60;;
19285;SDS011;9776;50.798;6.430;2023-06-24T11:05:02;3.70;;;1.55;;
19285;SDS011;9776;50.798;6.430;2023-06-24T11:07:31;2.58;;;1.50;;
19285;SDS011;9776;50.798;6.430;2023-06-24T11:10:01;1.75;;;1.33;;
19285;SDS011;9776;50.798;6.430;2023-06-24T11:12:31;3.17;;;1.50;;
19285;SDS011;9776;50.798;6.430;2023-06-24T11:15:01;2.30;;;1.77;;
19285;SDS011;9776;50.798;6.430;2023-06-24T11:17:29;2.83;;;1.70;;
19285;SDS011;9776;50.798;6.430;2023-06-24T11:19:57;2.63;;;1.40;;
19285;SDS011;9776;50.798;6.430;2023-06-24T11:22:24;2.53;;;1.25;;
19285;SDS011;9776;50.798;6.430;2023-06-24T11:24:52;1.67;;;1.30;;
19285;SDS011;9776;50.798;6.430;2023-06-24T11:27:23;4.68;;;1.40;;
19285;SDS011;9776;50.798;6.430;2023-06-24T11:29:53;2.25;;;1.50;;
19285;SDS011;9776;50.798;6.430;2023-06-24T11:32:20;4.25;;;1.58;;
19285;SDS011;9776;50.798;6.430;2023-06-24T11:34:47;2.03;;;1.30;;
19285;SDS011;9776;50.798;6.430;2023-06-24T11:37:16;1.58;;;1.20;;
19285;SDS011;9776;50.798;6.430;2023-06-24T11:39:44;2.35;;;1.10;;
19285;SDS011;9776;50.798;6.430;2023-06-24T11:42:11;2.13;;;1.42;;
19285;SDS011;9776;50.798;6.430;2023-06-24T11:44:40;1.90;;;1.20;;
19285;SDS011;9776;50.798;6.430;2023-06-24T11:47:10;2.20;;;1.20;;
19285;SDS011;9776;50.798;6.430;2023-06-24T11:49:50;2.20;;;1.30;;
19285;SDS011;9776;50.798;6.430;2023-06-24T11:52:19;2.25;;;1.27;;
19285;SDS011;9776;50.798;6.430;2023-06-24T11:54:45;1.85;;;1.20;;
19285;SDS011;9776;50.798;6.430;2023-06-24T11:57:17;1.52;;;1.20;;
19285;SDS011;9776;50.798;6.430;2023-06-24T11:59:43;1.30;;;1.00;;
19285;SDS011;9776;50.798;6.430;2023-06-24T12:02:14;1.67;;;1.13;;
19285;SDS011;9776;50.798;6.430;2023-06-24T12:04:43;1.90;;;1.10;;
19285;SDS011;9776;50.798;6.430;2023-06-24T12:07:09;1.90;;;1.23;;
19285;SDS011;9776;50.798;6.430;2023-06-24T12:09:36;1.52;;;1.02;;
19285;SDS011;9776;50.798;6.430;2023-06-24T12:12:04;1.65;;;1.02;;
19285;SDS011;9776;50.798;6.430;2023-06-24T12:14:32;1.52;;;1.30;;
19285;SDS011;9776;50.798;6.430;2023-06-24T12:16:58;2.97;;;1.20;;
19285;SDS011;9776;50.798;6.430;2023-06-24T12:19:28;2.05;;;1.10;;
19285;SDS011;9776;50.798;6.430;2023-06-24T12:21:55;5.13;;;1.30;;
19285;SDS011;9776;50.798;6.430;2023-06-24T12:24:21;1.83;;;1.30;;
19285;SDS011;9776;50.798;6.430;2023-06-24T12:26:48;1.98;;;1.17;;
19285;SDS011;9776;50.798;6.430;2023-06-24T12:29:15;2.00;;;1.30;;
19285;SDS011;9776;50.798;6.430;2023-06-24T12:31:41;2.47;;;1.30;;
19285;SDS011;9776;50.798;6.430;2023-06-24T12:34:08;1.67;;;1.15;;
19285;SDS011;9776;50.798;6.430;2023-06-24T12:36:37;2.10;;;1.40;;
19285;SDS011;9776;50.798;6.430;2023-06-24T12:39:04;3.35;;;1.23;;
19285;SDS011;9776;50.798;6.430;2023-06-24T12:41:31;2.35;;;1.50;;
19285;SDS011;9776;50.798;6.430;2023-06-24T12:43:58;3.08;;;1.48;;
19285;SDS011;9776;50.798;6.430;2023-06-24T12:46:25;1.60;;;1.23;;
19285;SDS011;9776;50.798;6.430;2023-06-24T12:48:51;3.10;;;1.35;;
19285;SDS011;9776;50.798;6.430;2023-06-24T12:51:18;2.85;;;1.60;;
19285;SDS011;9776;50.798;6.430;2023-06-24T12:53:46;2.83;;;1.50;;
19285;SDS011;9776;50.798;6.430;2023-06-24T12:56:13;1.80;;;1.35;;
19285;SDS011;9776;50.798;6.430;2023-06-24T12:58:40;1.85;;;1.30;;
19285;SDS011;9776;50.798;6.430;2023-06-24T13:01:07;2.40;;;1.70;;
19285;SDS011;9776;50.798;6.430;2023-06-24T13:03:33;2.65;;;1.50;;
19285;SDS011;9776;50.798;6.430;2023-06-24T13:06:00;3.78;;;1.40;;
19285;SDS011;9776;50.798;6.430;2023-06-24T13:08:27;2.47;;;1.55;;
19285;SDS011;9776;50.798;6.430;2023-06-24T13:10:55;1.75;;;1.20;;
19285;SDS011;9776;50.798;6.430;2023-06-24T13:13:22;2.40;;;1.50;;
19285;SDS011;9776;50.798;6.430;2023-06-24T13:15:49;2.00;;;1.40;;
19285;SDS011;9776;50.798;6.430;2023-06-24T13:18:15;2.35;;;1.45;;
19285;SDS011;9776;50.798;6.430;2023-06-24T13:20:43;2.80;;;1.35;;
19285;SDS011;9776;50.798;6.430;2023-06-24T13:23:10;3.28;;;1.38;;
19285;SDS011;9776;50.798;6.430;2023-06-24T13:25:36;3.33;;;1.58;;
19285;SDS011;9776;50.798;6.430;2023-06-24T13:28:04;3.35;;;1.70;;
19285;SDS011;9776;50.798;6.430;2023-06-24T13:30:31;4.63;;;1.63;;
19285;SDS011;9776;50.798;6.430;2023-06-24T13:32:58;2.67;;;1.55;;
19285;SDS011;9776;50.798;6.430;2023-06-24T13:35:25;2.22;;;1.50;;
19285;SDS011;9776;50.798;6.430;2023-06-24T13:37:51;2.15;;;1.42;;
19285;SDS011;9776;50.798;6.430;2023-06-24T13:40:18;3.05;;;1.50;;
19285;SDS011;9776;50.798;6.430;2023-06-24T13:42:44;2.08;;;1.40;;
19285;SDS011;9776;50.798;6.430;2023-06-24T13:45:13;2.35;;;1.50;;
19285;SDS011;9776;50.798;6.430;2023-06-24T13:47:39;3.03;;;1.35;;
19285;SDS011;9776;50.798;6.430;2023-06-24T13:50:06;1.95;;;1.27;;
19285;SDS011;9776;50.798;6.430;2023-06-24T13:52:33;4.00;;;1.50;;
19285;SDS011;9776;50.798;6.430;2023-06-24T13:55:00;1.75;;;1.40;;
19285;SDS011;9776;50.798;6.430;2023-06-24T13:57:27;2.05;;;1.50;;
19285;SDS011;9776;50.798;6.430;2023-06-24T13:59:54;2.13;;;1.50;;
19285;SDS011;9776;50.798;6.430;2023-06-24T14:02:22;2.15;;;1.35;;
19285;SDS011;9776;50.798;6.430;2023-06-24T14:04:48;2.15;;;1.50;;
19285;SDS011;9776;50.798;6.430;2023-06-24T14:07:15;1.80;;;1.38;;
19285;SDS011;9776;50.798;6.430;2023-06-24T14:09:42;2.20;;;1.50;;
19285;SDS011;9776;50.798;6.430;2023-06-24T14:12:08;3.47;;;2.30;;
19285;SDS011;9776;50.798;6.430;2023-06-24T14:14:35;2.42;;;1.45;;
19285;SDS011;9776;50.798;6.430;2023-06-24T14:17:03;1.90;;;1.23;;
19285;SDS011;9776;50.798;6.430;2023-06-24T14:19:35;2.30;;;1.20;;
19285;SDS011;9776;50.798;6.430;2023-06-24T14:22:02;2.58;;;1.38;;
19285;SDS011;9776;50.798;6.430;2023-06-24T14:24:29;2.30;;;1.48;;
19285;SDS011;9776;50.798;6.430;2023-06-24T14:26:56;2.75;;;1.33;;
19285;SDS011;9776;50.798;6.430;2023-06-24T14:29:22;1.85;;;1.15;;
19285;SDS011;9776;50.798;6.430;2023-06-24T14:31:49;1.83;;;1.20;;
19285;SDS011;9776;50.798;6.430;2023-06-24T14:34:16;2.13;;;1.30;;
19285;SDS011;9776;50.798;6.430;2023-06-24T14:36:44;3.30;;;1.33;;
19285;SDS011;9776;50.798;6.430;2023-06-24T14:39:13;1.92;;;1.35;;
19285;SDS011;9776;50.798;6.430;2023-06-24T14:41:42;2.13;;;1.10;;
19285;SDS011;9776;50.798;6.430;2023-06-24T14:44:09;1.65;;;1.10;;
19285;SDS011;9776;50.798;6.430;2023-06-24T14:46:36;2.03;;;1.27;;
19285;SDS011;9776;50.798;6.430;2023-06-24T14:49:03;2.42;;;1.25;;
19285;SDS011;9776;50.798;6.430;2023-06-24T14:51:30;2.50;;;1.30;;
19285;SDS011;9776;50.798;6.430;2023-06-24T14:53:58;2.13;;;1.30;;
19285;SDS011;9776;50.798;6.430;2023-06-24T14:56:24;3.00;;;1.10;;
19285;SDS011;9776;50.798;6.430;2023-06-24T14:58:51;2.72;;;1.30;;
19285;SDS011;9776;50.798;6.430;2023-06-24T15:01:18;3.03;;;1.35;;
19285;SDS011;9776;50.798;6.430;2023-06-24T15:03:45;2.60;;;1.60;;
19285;SDS011;9776;50.798;6.430;2023-06-24T15:06:11;2.25;;;1.17;;
19285;SDS011;9776;50.798;6.430;2023-06-24T15:08:38;2.58;;;1.17;;
19285;SDS011;9776;50.798;6.430;2023-06-24T15:11:06;1.73;;;1.17;;
19285;SDS011;9776;50.798;6.430;2023-06-24T15:13:32;2.40;;;1.30;;